createdAt,value
2023-02-23T00:02:21.747Z,11.95
2023-02-23T00:04:50.027Z,12.05
2023-02-23T00:07:21.226Z,11.92
2023-02-23T00:09:50.971Z,11.82
2023-02-23T00:12:20.966Z,11.86
2023-02-23T00:14:49.500Z,11.88
2023-02-23T00:17:18.314Z,11.89
2023-02-23T00:19:49.431Z,11.75
2023-02-23T00:22:18.529Z,11.93
2023-02-23T00:24:47.880Z,12.04
2023-02-23T00:27:21.061Z,11.97
2023-02-23T00:29:51.729Z,11.96
2023-02-23T00:32:20.904Z,11.95
2023-02-23T00:34:50.467Z,12.04
2023-02-23T00:37:19.412Z,11.97
2023-02-23T00:39:48.002Z,11.95
2023-02-23T00:42:16.405Z,12.02
2023-02-23T00:44:47.576Z,12.00
2023-02-23T00:47:18.098Z,12.08
2023-02-23T00:49:46.871Z,11.94
2023-02-23T00:52:15.895Z,11.86
2023-02-23T00:54:44.479Z,11.95
2023-02-23T00:57:12.899Z,11.91
2023-02-23T00:59:41.278Z,11.93
2023-02-23T01:02:09.694Z,11.98
2023-02-23T01:04:39.598Z,11.77
2023-02-23T01:07:08.083Z,11.73
2023-02-23T01:09:36.550Z,11.86
2023-02-23T01:12:07.616Z,11.82
2023-02-23T01:14:36.092Z,11.86
2023-02-23T01:17:04.427Z,11.85
2023-02-23T01:19:34.947Z,11.92
2023-02-23T01:22:04.726Z,11.88
2023-02-23T01:24:33.114Z,11.82
2023-02-23T01:27:01.419Z,11.65
2023-02-23T01:29:29.776Z,11.69
2023-02-23T01:31:58.161Z,11.80
2023-02-23T01:34:27.157Z,11.87
2023-02-23T01:36:55.543Z,11.84
2023-02-23T01:39:25.450Z,11.83
2023-02-23T01:41:54.505Z,11.88
2023-02-23T01:45:14.477Z,11.81
2023-02-23T01:47:42.847Z,11.67
2023-02-23T01:50:12.470Z,11.54
2023-02-23T01:52:40.809Z,11.70
2023-02-23T01:55:13.399Z,11.66
2023-02-23T01:57:42.433Z,11.85
2023-02-23T02:00:14.159Z,11.92
2023-02-23T02:02:42.965Z,11.91
2023-02-23T02:05:14.394Z,12.00
2023-02-23T02:07:47.724Z,12.00
2023-02-23T02:10:39.820Z,12.00
2023-02-23T02:13:10.508Z,11.88
2023-02-23T02:15:53.767Z,11.90
2023-02-23T02:18:30.755Z,11.99
2023-02-23T02:21:25.843Z,12.05
2023-02-23T02:24:19.184Z,11.98
2023-02-23T02:26:56.891Z,11.88
2023-02-23T02:30:02.351Z,11.99
2023-02-23T02:32:44.439Z,11.95
2023-02-23T02:35:30.019Z,11.97
2023-02-23T02:38:16.533Z,11.94
2023-02-23T02:40:54.450Z,11.91
2023-02-23T02:43:31.641Z,11.92
2023-02-23T02:46:05.595Z,11.91
2023-02-23T02:48:42.243Z,11.94
2023-02-23T02:51:18.757Z,11.92
2023-02-23T02:53:53.005Z,11.92
2023-02-23T02:56:23.472Z,11.86
2023-02-23T02:58:53.628Z,11.87
2023-02-23T03:01:39.587Z,11.90
2023-02-23T03:04:39.884Z,11.83
2023-02-23T03:07:34.492Z,11.80
2023-02-23T03:10:29.000Z,11.80
2023-02-23T03:13:20.033Z,11.80
2023-02-23T03:16:14.123Z,11.80
2023-02-23T03:19:12.850Z,11.77
2023-02-23T03:22:05.362Z,11.74
2023-02-23T03:24:56.762Z,11.53
2023-02-23T03:27:47.539Z,11.78
2023-02-23T03:30:39.342Z,11.87
2023-02-23T03:33:28.822Z,11.82
2023-02-23T03:36:20.642Z,11.87
2023-02-23T03:39:12.351Z,11.80
2023-02-23T03:41:59.265Z,11.85
2023-02-23T03:44:49.998Z,11.90
2023-02-23T03:47:38.398Z,11.93
2023-02-23T03:50:27.958Z,11.88
2023-02-23T03:53:17.369Z,11.85
2023-02-23T03:56:09.575Z,11.77
2023-02-23T03:58:59.122Z,11.71
2023-02-23T04:01:47.014Z,11.78
2023-02-23T04:04:32.578Z,11.83
2023-02-23T04:07:20.557Z,11.69
2023-02-23T04:10:06.935Z,11.68
2023-02-23T04:13:04.741Z,11.63
2023-02-23T04:15:34.093Z,11.72
2023-02-23T04:18:05.166Z,11.76
2023-02-23T04:20:33.552Z,11.67
2023-02-23T04:23:01.925Z,11.62
2023-02-23T04:25:31.397Z,11.68
2023-02-23T04:28:00.501Z,11.69
2023-02-23T04:30:29.827Z,11.65
2023-02-23T04:32:59.216Z,11.50
2023-02-23T04:35:31.495Z,11.58
2023-02-23T04:37:59.996Z,11.44
2023-02-23T04:40:29.410Z,11.53
2023-02-23T04:42:58.179Z,11.68
2023-02-23T04:45:27.257Z,11.65
2023-02-23T04:47:55.677Z,11.66
2023-02-23T04:50:24.380Z,11.64
2023-02-23T04:52:54.329Z,11.42
2023-02-23T04:55:24.492Z,11.30
2023-02-23T04:58:00.039Z,11.59
2023-02-23T05:00:29.920Z,11.41
2023-02-23T05:02:58.479Z,11.54
2023-02-23T05:05:27.541Z,11.45
2023-02-23T05:08:01.154Z,11.46
2023-02-23T05:10:29.858Z,11.39
2023-02-23T05:13:18.686Z,11.43
2023-02-23T05:15:47.103Z,11.56
2023-02-23T05:18:15.579Z,11.70
2023-02-23T05:20:45.328Z,11.61
2023-02-23T05:23:15.772Z,11.56
2023-02-23T05:25:44.173Z,11.49
2023-02-23T05:28:15.116Z,11.55
2023-02-23T05:30:46.142Z,11.64
2023-02-23T05:33:18.219Z,11.46
2023-02-23T05:36:05.965Z,11.36
2023-02-23T05:38:37.686Z,11.67
2023-02-23T05:41:57.771Z,11.56
2023-02-23T05:44:29.618Z,11.57
2023-02-23T05:46:58.231Z,11.69
2023-02-23T05:49:27.495Z,11.69
2023-02-23T05:51:56.342Z,11.64
2023-02-23T05:54:28.368Z,11.62
2023-02-23T05:56:58.177Z,11.53
2023-02-23T05:59:27.909Z,11.70
2023-02-23T06:01:57.010Z,11.54
2023-02-23T06:04:25.760Z,11.61
2023-02-23T06:06:54.283Z,11.68
2023-02-23T06:09:22.994Z,11.72
2023-02-23T06:11:53.182Z,11.55
2023-02-23T06:14:22.192Z,11.60
2023-02-23T06:16:52.192Z,11.64
2023-02-23T06:19:21.996Z,11.26
2023-02-23T06:21:51.502Z,11.53
2023-02-23T06:24:20.368Z,11.49
2023-02-23T06:26:49.497Z,11.48
2023-02-23T06:29:20.220Z,11.59
2023-02-23T06:31:49.322Z,11.65
2023-02-23T06:34:18.098Z,11.48
2023-02-23T06:36:47.398Z,11.48
2023-02-23T06:39:16.279Z,11.22
2023-02-23T06:41:45.106Z,11.21
2023-02-23T06:44:13.769Z,11.46
2023-02-23T06:46:44.209Z,11.20
2023-02-23T06:49:15.580Z,11.03
2023-02-23T06:51:45.381Z,11.17
2023-02-23T06:54:14.184Z,11.31
2023-02-23T06:56:42.766Z,11.51
2023-02-23T06:59:11.392Z,11.43
2023-02-23T07:01:40.362Z,11.47
2023-02-23T07:04:10.342Z,11.29
2023-02-23T07:06:39.414Z,11.58
2023-02-23T07:09:07.792Z,11.38
2023-02-23T07:11:36.372Z,11.32
2023-02-23T07:14:06.543Z,11.56
2023-02-23T07:16:37.047Z,11.36
2023-02-23T07:19:05.500Z,11.54
2023-02-23T07:21:35.825Z,11.28
2023-02-23T07:24:05.052Z,11.20
2023-02-23T07:26:33.852Z,11.52
2023-02-23T07:29:02.815Z,11.17
2023-02-23T07:31:31.387Z,11.40
2023-02-23T07:33:59.781Z,11.07
2023-02-23T07:36:28.492Z,11.58
2023-02-23T07:38:58.895Z,11.76
2023-02-23T07:41:27.820Z,11.75
2023-02-23T07:43:56.266Z,11.48
2023-02-23T07:46:25.614Z,11.43
2023-02-23T07:48:55.416Z,11.11
2023-02-23T07:51:26.713Z,11.12
2023-02-23T07:53:56.029Z,11.25
2023-02-23T07:56:28.275Z,11.52
2023-02-23T07:58:56.731Z,11.61
2023-02-23T08:01:25.549Z,11.26
2023-02-23T08:03:54.114Z,11.57
2023-02-23T08:06:22.689Z,11.49
2023-02-23T08:08:51.560Z,11.96
2023-02-23T08:11:20.447Z,11.70
2023-02-23T08:13:55.166Z,11.77
2023-02-23T08:16:23.718Z,11.82
2023-02-23T08:18:52.122Z,12.06
2023-02-23T08:21:20.934Z,11.89
2023-02-23T08:23:49.530Z,12.00
2023-02-23T08:26:18.089Z,11.77
2023-02-23T08:28:46.677Z,11.82
2023-02-23T08:31:19.605Z,12.21
2023-02-23T08:33:48.375Z,11.87
2023-02-23T08:36:16.744Z,11.94
2023-02-23T08:38:46.116Z,12.04
2023-02-23T08:41:14.847Z,12.26
2023-02-23T08:43:44.088Z,11.98
2023-02-23T08:46:16.746Z,12.20
2023-02-23T08:48:46.819Z,11.50
2023-02-23T08:51:15.762Z,12.00
2023-02-23T08:53:45.666Z,11.99
2023-02-23T08:56:15.447Z,11.46
2023-02-23T08:58:44.317Z,11.82
2023-02-23T09:01:19.053Z,11.53
2023-02-23T09:03:51.349Z,11.94
2023-02-23T09:06:21.806Z,12.17
2023-02-23T09:08:50.444Z,11.77
2023-02-23T09:11:19.083Z,12.13
2023-02-23T09:13:47.789Z,12.18
2023-02-23T09:16:16.086Z,11.87
2023-02-23T09:18:44.398Z,12.02
2023-02-23T09:21:21.428Z,11.89
2023-02-23T09:23:51.367Z,11.67
2023-02-23T09:26:21.402Z,12.10
2023-02-23T09:28:50.007Z,12.09
2023-02-23T09:31:20.794Z,11.81
2023-02-23T09:33:49.467Z,12.09
2023-02-23T09:36:21.202Z,12.21
2023-02-23T09:38:52.377Z,12.02
2023-02-23T09:41:51.539Z,11.99
2023-02-23T09:44:27.863Z,11.95
2023-02-23T09:47:06.638Z,11.90
2023-02-23T09:49:38.059Z,11.60
2023-02-23T09:52:12.572Z,11.84
2023-02-23T09:54:41.334Z,11.89
2023-02-23T09:57:15.700Z,12.07
2023-02-23T09:59:45.394Z,12.23
2023-02-23T10:02:22.239Z,11.97
2023-02-23T10:04:52.256Z,12.02
2023-02-23T10:07:25.808Z,11.68
2023-02-23T10:10:11.744Z,11.86
2023-02-23T10:12:46.438Z,12.03
2023-02-23T10:15:20.088Z,11.99
2023-02-23T10:17:56.610Z,11.96
2023-02-23T10:20:32.386Z,11.53
2023-02-23T10:23:05.697Z,12.14
2023-02-23T10:25:37.911Z,12.13
2023-02-23T10:28:06.391Z,11.77
2023-02-23T10:30:35.360Z,12.40
2023-02-23T10:33:08.918Z,12.15
2023-02-23T10:35:38.632Z,11.76
2023-02-23T10:38:15.932Z,11.90
2023-02-23T10:40:51.660Z,12.15
2023-02-23T10:43:20.096Z,11.84
2023-02-23T10:45:50.236Z,11.75
2023-02-23T10:48:21.554Z,11.97
2023-02-23T10:50:51.457Z,12.26
2023-02-23T10:53:25.120Z,12.23
2023-02-23T10:56:06.715Z,12.11
2023-02-23T10:58:43.093Z,12.39
2023-02-23T11:01:13.554Z,12.71
2023-02-23T11:03:44.338Z,12.62
2023-02-23T11:06:29.631Z,12.65
2023-02-23T11:08:59.293Z,12.93
2023-02-23T11:11:29.006Z,12.66
2023-02-23T11:13:58.625Z,13.04
2023-02-23T11:16:30.069Z,12.65
2023-02-23T11:19:00.607Z,12.59
2023-02-23T11:21:33.714Z,12.45
2023-02-23T11:24:13.128Z,12.79
2023-02-23T11:26:43.491Z,12.95
2023-02-23T11:29:17.587Z,12.68
2023-02-23T11:31:50.916Z,12.82
2023-02-23T11:34:25.417Z,13.07
2023-02-23T11:37:01.364Z,13.10
2023-02-23T11:39:31.289Z,13.27
2023-02-23T11:42:19.593Z,13.16
2023-02-23T11:44:52.739Z,12.89
2023-02-23T11:47:23.104Z,13.03
2023-02-23T11:49:51.970Z,12.75
2023-02-23T11:52:22.458Z,12.91
2023-02-23T11:54:57.866Z,12.87
2023-02-23T11:57:29.146Z,12.69
2023-02-23T11:59:57.906Z,12.74
2023-02-23T12:02:28.236Z,12.59
2023-02-23T12:05:05.847Z,12.55
2023-02-23T12:07:41.877Z,12.66
2023-02-23T12:10:23.183Z,12.64
2023-02-23T12:12:59.442Z,12.99
2023-02-23T12:15:38.771Z,13.07
2023-02-23T12:18:13.502Z,13.40
2023-02-23T12:20:47.228Z,12.80
2023-02-23T12:23:19.582Z,13.15
2023-02-23T12:25:53.715Z,13.30
2023-02-23T12:28:34.615Z,13.20
2023-02-23T12:31:06.318Z,13.10
2023-02-23T12:33:37.810Z,13.06
2023-02-23T12:36:14.089Z,12.76
2023-02-23T12:38:50.548Z,12.80
2023-02-23T12:41:27.912Z,12.77
2023-02-23T12:44:00.908Z,13.09
2023-02-23T12:46:34.590Z,13.10
2023-02-23T12:49:07.793Z,13.11
2023-02-23T12:51:40.371Z,12.92
2023-02-23T12:54:10.831Z,12.71
2023-02-23T12:56:50.072Z,13.24
2023-02-23T12:59:54.015Z,12.78
2023-02-23T13:02:27.197Z,12.82
2023-02-23T13:05:24.481Z,12.85
2023-02-23T13:08:12.899Z,12.81
2023-02-23T13:10:49.001Z,12.57
2023-02-23T13:13:27.110Z,13.02
2023-02-23T13:16:01.412Z,13.32
2023-02-23T13:18:33.841Z,13.32
2023-02-23T13:21:06.802Z,13.54
2023-02-23T13:23:37.220Z,13.46
2023-02-23T13:26:15.683Z,13.86
2023-02-23T13:29:00.304Z,13.80
2023-02-23T13:31:44.772Z,13.63
2023-02-23T13:34:16.837Z,14.09
2023-02-23T13:36:46.038Z,13.93
2023-02-23T13:39:47.886Z,13.88
2023-02-23T13:42:28.232Z,14.07
2023-02-23T13:45:04.632Z,14.17
2023-02-23T13:47:39.842Z,13.86
2023-02-23T13:50:23.404Z,13.95
2023-02-23T13:52:56.118Z,14.23
2023-02-23T13:55:48.795Z,14.27
2023-02-23T13:58:20.132Z,13.77
2023-02-23T14:00:55.745Z,13.70
2023-02-23T14:03:28.183Z,13.96
2023-02-23T14:05:58.654Z,13.53
2023-02-23T14:08:33.271Z,13.55
2023-02-23T14:11:02.940Z,13.27
2023-02-23T14:13:33.254Z,12.97
2023-02-23T14:16:16.200Z,13.02
2023-02-23T14:19:10.797Z,12.48
2023-02-23T14:21:45.494Z,12.97
2023-02-23T14:24:20.521Z,12.81
2023-02-23T14:27:38.583Z,12.41
2023-02-23T14:30:22.930Z,12.48
2023-02-23T14:32:53.775Z,12.36
2023-02-23T14:35:44.407Z,12.62
2023-02-23T14:38:27.581Z,11.89
2023-02-23T14:40:58.341Z,12.25
2023-02-23T14:43:45.447Z,12.29
2023-02-23T14:46:19.817Z,11.83
2023-02-23T14:49:02.895Z,12.00
2023-02-23T14:51:42.527Z,11.92
2023-02-23T14:54:23.506Z,12.24
2023-02-23T14:56:57.860Z,11.94
2023-02-23T14:59:36.894Z,11.84
2023-02-23T15:02:11.169Z,12.14
2023-02-23T15:04:42.182Z,12.05
2023-02-23T15:07:19.257Z,12.05
2023-02-23T15:09:48.197Z,12.03
2023-02-23T15:12:19.193Z,11.88
2023-02-23T15:14:50.081Z,11.35
2023-02-23T15:17:24.509Z,11.27
2023-02-23T15:20:14.451Z,11.21
2023-02-23T15:22:44.637Z,11.00
2023-02-23T15:25:21.103Z,11.27
2023-02-23T15:27:53.348Z,11.46
2023-02-23T15:30:27.824Z,10.75
2023-02-23T15:33:07.052Z,11.05
2023-02-23T15:35:45.258Z,11.23
2023-02-23T15:38:40.539Z,11.07
2023-02-23T15:41:11.440Z,11.09
2023-02-23T15:43:39.945Z,11.28
2023-02-23T15:46:08.398Z,10.76
2023-02-23T15:48:47.552Z,10.98
2023-02-23T15:51:23.707Z,11.04
2023-02-23T15:53:54.126Z,11.12
2023-02-23T15:56:26.594Z,10.73
2023-02-23T15:58:59.177Z,10.96
2023-02-23T16:01:31.092Z,11.04
2023-02-23T16:04:04.217Z,10.94
2023-02-23T16:06:39.003Z,10.94
2023-02-23T16:12:25.001Z,10.97
2023-02-23T16:14:57.172Z,10.68
2023-02-23T16:17:31.954Z,10.78
2023-02-23T16:20:14.816Z,10.83
2023-02-23T16:22:46.204Z,10.73
2023-02-23T16:25:18.080Z,10.74
2023-02-23T16:27:55.475Z,10.35
2023-02-23T16:30:40.667Z,10.62
2023-02-23T16:33:19.170Z,10.32
2023-02-23T16:35:54.658Z,10.62
2023-02-23T16:38:29.268Z,10.33
2023-02-23T16:40:58.864Z,10.43
2023-02-23T16:43:31.882Z,10.58
2023-02-23T16:46:09.398Z,10.35
2023-02-23T16:48:39.465Z,10.43
2023-02-23T16:51:14.741Z,10.48
2023-02-23T16:53:44.143Z,10.45
2023-02-23T16:56:19.221Z,10.44
2023-02-23T16:58:53.776Z,10.45
2023-02-23T17:01:23.673Z,10.28
2023-02-23T17:04:02.834Z,10.30
2023-02-23T17:06:32.315Z,10.55
2023-02-23T17:09:02.191Z,10.41
2023-02-23T17:11:31.764Z,10.33
2023-02-23T17:14:03.307Z,10.24
2023-02-23T17:16:33.385Z,10.18
2023-02-23T17:19:02.844Z,10.08
2023-02-23T17:24:17.385Z,10.09
2023-02-23T17:26:47.925Z,9.88
2023-02-23T17:29:19.037Z,10.00
2023-02-23T17:31:49.233Z,10.28
2023-02-23T17:34:18.253Z,10.33
2023-02-23T17:36:49.114Z,10.53
2023-02-23T17:39:18.545Z,10.30
2023-02-23T17:41:47.709Z,10.28
2023-02-23T17:44:18.671Z,10.29
2023-02-23T17:46:49.182Z,10.32
2023-02-23T17:49:19.392Z,10.13
2023-02-23T17:51:49.182Z,10.31
2023-02-23T17:54:17.912Z,10.26
2023-02-23T17:56:49.153Z,10.54
2023-02-23T17:59:20.060Z,10.27
2023-02-23T18:01:49.940Z,10.40
2023-02-23T18:04:20.308Z,10.45
2023-02-23T18:06:49.503Z,9.91
2023-02-23T18:09:18.788Z,10.13
2023-02-23T18:11:49.033Z,10.17
2023-02-23T18:14:20.270Z,9.85
2023-02-23T18:16:51.011Z,9.79
2023-02-23T18:19:21.030Z,10.03
2023-02-23T18:21:50.145Z,10.10
2023-02-23T18:24:21.426Z,10.06
2023-02-23T18:26:51.656Z,10.31
2023-02-23T18:29:25.868Z,10.18
2023-02-23T18:31:55.113Z,10.35
2023-02-23T18:34:24.605Z,10.34
2023-02-23T18:37:02.531Z,10.19
2023-02-23T18:39:32.220Z,10.15
2023-02-23T18:42:04.603Z,10.24
2023-02-23T18:44:36.941Z,9.89
2023-02-23T18:47:11.025Z,10.13
2023-02-23T18:49:39.498Z,10.01
2023-02-23T18:52:09.575Z,10.10
2023-02-23T18:54:41.799Z,10.39
2023-02-23T18:57:10.740Z,10.08
2023-02-23T18:59:42.264Z,10.27
2023-02-23T19:02:14.102Z,10.41
2023-02-23T19:04:43.500Z,10.21
2023-02-23T19:07:12.003Z,10.15
2023-02-23T19:09:42.441Z,10.13
2023-02-23T19:12:16.031Z,10.29
2023-02-23T19:14:52.991Z,10.38
2023-02-23T19:17:24.433Z,9.82
2023-02-23T19:20:01.968Z,10.15
2023-02-23T19:22:31.132Z,10.03
2023-02-23T19:25:04.007Z,10.08
2023-02-23T19:27:38.229Z,10.07
2023-02-23T19:30:14.767Z,9.87
2023-02-23T19:32:45.323Z,9.91
2023-02-23T19:35:19.441Z,9.82
2023-02-23T19:37:50.777Z,9.84
2023-02-23T19:40:22.979Z,9.80
2023-02-23T19:42:53.473Z,9.71
2023-02-23T19:45:27.964Z,9.72
2023-02-23T19:47:56.798Z,9.53
2023-02-23T19:50:25.964Z,9.60
2023-02-23T19:52:54.977Z,9.53
2023-02-23T19:55:24.023Z,9.49
2023-02-23T19:57:56.034Z,9.37
2023-02-23T20:00:27.071Z,9.14
2023-02-23T20:02:56.172Z,8.70
2023-02-23T20:05:27.234Z,9.15
2023-02-23T20:07:57.247Z,9.06
2023-02-23T20:10:35.890Z,9.08
2023-02-23T20:13:04.747Z,8.91
2023-02-23T20:15:35.597Z,8.94
2023-02-23T20:18:09.719Z,8.50
2023-02-23T20:20:42.006Z,8.54
2023-02-23T20:23:13.083Z,8.61
2023-02-23T20:25:43.027Z,8.63
2023-02-23T20:28:12.695Z,8.18
2023-02-23T20:30:47.074Z,8.44
2023-02-23T20:33:16.548Z,8.40
2023-02-23T20:35:45.731Z,8.19
2023-02-23T20:38:18.335Z,8.43
2023-02-23T20:40:49.243Z,8.37
2023-02-23T20:43:19.134Z,8.00
2023-02-23T20:45:49.486Z,8.21
2023-02-23T20:48:19.582Z,8.02
2023-02-23T20:50:47.993Z,8.19
2023-02-23T20:53:18.222Z,8.13
2023-02-23T20:55:47.245Z,8.17
2023-02-23T20:58:18.149Z,8.07
2023-02-23T21:00:47.963Z,7.50
2023-02-23T21:06:33.361Z,7.88
2023-02-23T21:09:18.204Z,7.89
2023-02-23T21:11:58.450Z,7.83
2023-02-23T21:14:28.277Z,7.76
2023-02-23T21:16:59.834Z,7.68
2023-02-23T21:19:33.625Z,7.63
2023-02-23T21:22:24.763Z,7.59
2023-02-23T21:24:56.086Z,7.53
2023-02-23T21:27:25.699Z,7.48
2023-02-23T21:30:02.481Z,7.42
2023-02-23T21:32:35.923Z,7.32
2023-02-23T21:35:08.943Z,7.17
2023-02-23T21:37:38.349Z,7.19
2023-02-23T21:40:11.253Z,7.16
2023-02-23T21:42:42.700Z,7.13
2023-02-23T21:45:14.979Z,7.08
2023-02-23T21:47:46.325Z,7.04
2023-02-23T21:50:19.583Z,6.98
2023-02-23T21:52:56.768Z,6.90
2023-02-23T21:55:31.033Z,6.87
2023-02-23T21:58:00.943Z,6.85
2023-02-23T22:00:32.257Z,6.81
2023-02-23T22:03:01.948Z,6.74
2023-02-23T22:05:35.699Z,6.71
2023-02-23T22:08:05.904Z,6.66
2023-02-23T22:10:35.383Z,6.64
2023-02-23T22:13:05.850Z,6.51
2023-02-23T22:15:35.151Z,6.53
2023-02-23T22:18:06.279Z,6.50
2023-02-23T22:20:36.780Z,6.49
2023-02-23T22:23:07.910Z,6.43
2023-02-23T22:25:37.211Z,6.39
2023-02-23T22:28:09.319Z,6.37
2023-02-23T22:30:38.721Z,6.27
2023-02-23T22:33:07.900Z,5.98
2023-02-23T22:35:42.703Z,6.04
2023-02-23T22:38:11.309Z,6.18
2023-02-23T22:40:44.392Z,6.17
2023-02-23T22:43:14.923Z,6.27
2023-02-23T22:45:50.665Z,6.28
2023-02-23T22:48:19.756Z,6.29
2023-02-23T22:50:50.821Z,6.31
2023-02-23T22:53:19.884Z,6.32
2023-02-23T22:55:49.620Z,6.32
2023-02-23T22:58:23.650Z,6.35
2023-02-23T23:01:04.897Z,6.37
2023-02-23T23:03:46.683Z,6.37
2023-02-23T23:06:22.398Z,6.43
2023-02-23T23:08:54.282Z,6.46
2023-02-23T23:11:25.134Z,6.47
2023-02-23T23:14:02.424Z,6.55
2023-02-23T23:16:36.894Z,6.66
2023-02-23T23:19:13.513Z,6.58
2023-02-23T23:21:45.854Z,6.66
2023-02-23T23:24:16.111Z,6.81
2023-02-23T23:26:46.197Z,7.00
2023-02-23T23:29:27.987Z,7.04
2023-02-23T23:31:58.234Z,7.09
2023-02-23T23:34:27.935Z,7.15
2023-02-23T23:37:02.042Z,7.18
2023-02-23T23:39:32.491Z,6.93
2023-02-23T23:42:07.028Z,7.21
2023-02-23T23:44:50.852Z,7.34
2023-02-23T23:47:19.404Z,7.26
2023-02-23T23:49:49.162Z,7.28
2023-02-23T23:52:21.182Z,7.22
2023-02-23T23:54:50.512Z,7.25
2023-02-23T23:57:19.605Z,7.25
2023-02-23T23:59:49.173Z,6.86
